TimeCST,TemperatureF,Dew PointF,Humidity,Sea Level PressureIn,VisibilityMPH,Wind Direction,Wind SpeedMPH,Gust SpeedMPH,PrecipitationIn,Events,Conditions,WindDirDegrees,DateUTC
12:51 AM,23.0,12.9,65,30.41,10.0,WNW,5.8,-,N/A,,Partly Cloudy,300,2012-01-18 06:51:00
1:51 AM,23.0,12.0,63,30.41,10.0,WNW,4.6,-,N/A,,Partly Cloudy,300,2012-01-18 07:51:00
2:51 AM,21.0,10.9,65,30.40,10.0,NW,4.6,-,N/A,,Clear,310,2012-01-18 08:51:00
3:51 AM,21.2,10.9,65,30.38,10.0,NNW,3.5,-,N/A,,Clear,330,2012-01-18 09:51:00
4:51 AM,16.9,10.0,75,30.38,10.0,NNW,3.5,-,N/A,,Clear,340,2012-01-18 10:51:00
5:51 AM,15.6,8.1,72,30.39,10.0,Calm,Calm,-,N/A,,Clear,0,2012-01-18 11:51:00
6:51 AM,15.4,8.1,73,30.39,10.0,Calm,Calm,-,N/A,,Partly Cloudy,0,2012-01-18 12:51:00
7:51 AM,14.9,8.1,74,30.38,10.0,East,3.5,-,N/A,,Partly Cloudy,90,2012-01-18 13:51:00
8:51 AM,18.0,10.0,71,30.37,10.0,ESE,4.6,-,N/A,,Partly Cloudy,110,2012-01-18 14:51:00
9:51 AM,21.0,10.9,65,30.37,10.0,SSW,6.9,-,N/A,,Scattered Clouds,200,2012-01-18 15:51:00
10:51 AM,25.0,12.0,58,30.34,10.0,SSE,9.2,-,N/A,,Mostly Cloudy,160,2012-01-18 16:51:00
11:51 AM,30.0,12.0,47,30.28,10.0,SSE,9.2,-,N/A,,Scattered Clouds,150,2012-01-18 17:51:00
12:51 PM,32.0,10.9,42,30.25,10.0,SSW,9.2,-,N/A,,Scattered Clouds,210,2012-01-18 18:51:00
1:51 PM,33.1,10.0,38,30.19,10.0,SSW,9.2,-,N/A,,Scattered Clouds,200,2012-01-18 19:51:00
2:51 PM,33.1,12.9,43,30.17,10.0,SSE,10.4,-,N/A,,Mostly Cloudy,160,2012-01-18 20:51:00
3:51 PM,34.0,14.0,44,30.12,10.0,South,9.2,-,N/A,,Mostly Cloudy,170,2012-01-18 21:51:00
4:51 PM,34.0,12.9,42,30.10,10.0,SSE,13.8,-,N/A,,Mostly Cloudy,150,2012-01-18 22:51:00
5:51 PM,33.1,12.9,43,30.07,10.0,South,10.4,-,N/A,,Scattered Clouds,170,2012-01-18 23:51:00
6:51 PM,30.9,17.1,57,30.07,10.0,SSE,9.2,-,N/A,,Partly Cloudy,160,2012-01-19 00:51:00
7:51 PM,30.0,15.1,54,30.04,10.0,South,8.1,-,N/A,,Scattered Clouds,180,2012-01-19 01:51:00
8:51 PM,30.9,14.0,50,30.04,10.0,SSW,10.4,-,N/A,,Mostly Cloudy,200,2012-01-19 02:51:00
9:51 PM,30.9,14.0,50,30.03,10.0,South,6.9,-,N/A,,Overcast,190,2012-01-19 03:51:00
10:51 PM,30.9,15.1,52,30.02,10.0,South,8.1,-,N/A,,Overcast,170,2012-01-19 04:51:00
11:51 PM,30.0,16.0,56,30.01,10.0,South,6.9,-,N/A,,Overcast,170,2012-01-19 05:51:00